Time;durP1;ratioP1;P1;durP2;ratioP2;P2;SDS_P1;SDS_P2;PMS_P1;PMS_P2;Temp;Humidity;BMP_temperature;BMP_pressure;BME280_temperature;BME280_humidity;BME280_pressure;Samples;Min_cycle;Max_cycle;Signal;HPM_P1;HPM_P2
2023/11/25 00:01:02;;;;;;;6.10;3.90;;;;;;;2.45;100.00;98184.51;110691;1260;21975;-81
2023/11/25 00:03:41;;;;;;;5.20;4.10;;;;;;;2.43;100.00;98191.61;110588;1261;21987;-79
2023/11/25 00:06:16;;;;;;;6.90;4.10;;;;;;;2.42;100.00;98200.90;110779;1261;23580;-80
2023/11/25 00:08:49;;;;;;;6.50;4.20;;;;;;;2.40;100.00;98199.29;110833;1260;23686;-81
2023/11/25 00:11:21;;;;;;;6.20;4.30;;;;;;;2.38;100.00;98205.02;111010;1249;22022;-80
2023/11/25 00:13:58;;;;;;;7.80;4.00;;;;;;;2.36;100.00;98210.40;111025;1257;21968;-78
2023/11/25 00:16:32;;;;;;;6.60;4.30;;;;;;;2.37;100.00;98212.78;110859;1257;21963;-79
2023/11/25 00:19:05;;;;;;;8.70;4.90;;;;;;;2.36;100.00;98213.34;110743;1257;22021;-78
2023/11/25 00:21:35;;;;;;;8.60;4.50;;;;;;;2.36;100.00;98214.52;110670;1257;23689;-79
2023/11/25 00:24:04;;;;;;;5.60;4.60;;;;;;;2.36;100.00;98217.63;110264;1264;23739;-78
2023/11/25 00:26:32;;;;;;;6.60;4.70;;;;;;;2.38;100.00;98225.48;110438;1263;23688;-78
2023/11/25 00:29:01;;;;;;;9.80;5.70;;;;;;;2.38;100.00;98228.52;110318;1264;21984;-78
2023/11/25 00:31:33;;;;;;;11.70;6.70;;;;;;;2.38;100.00;98230.77;109449;1259;23046;-77
2023/11/25 00:34:01;;;;;;;16.30;9.20;;;;;;;2.32;100.00;98224.48;109687;1270;24379;-78
2023/11/25 00:36:31;;;;;;;15.40;10.40;;;;;;;2.36;100.00;98235.14;109491;1270;22942;-79
2023/11/25 00:38:59;;;;;;;14.90;9.30;;;;;;;2.35;100.00;98240.69;109655;1270;21998;-78
2023/11/25 00:41:28;;;;;;;14.20;8.90;;;;;;;2.34;100.00;98245.34;109026;1270;23679;-77
2023/11/25 00:43:58;;;;;;;12.40;6.80;;;;;;;2.32;100.00;98244.21;109656;1270;23047;-79
2023/11/25 00:46:38;;;;;;;14.70;7.60;;;;;;;2.28;100.00;98246.59;109604;1270;21980;-79
2023/11/25 00:49:08;;;;;;;9.10;5.20;;;;;;;2.24;100.00;98247.09;109400;1267;22043;-79
2023/11/25 00:51:37;;;;;;;9.40;5.50;;;;;;;2.17;100.00;98246.16;109447;1270;23034;-79
2023/11/25 00:54:06;;;;;;;6.80;4.50;;;;;;;2.10;100.00;98250.71;109412;1270;23709;-79
2023/11/25 00:56:35;;;;;;;7.70;5.40;;;;;;;2.05;100.00;98253.63;109436;1270;21991;-79
2023/11/25 00:59:04;;;;;;;8.00;5.10;;;;;;;2.02;100.00;98255.11;109575;1265;22007;-78
2023/11/25 01:01:32;;;;;;;7.90;5.10;;;;;;;2.01;100.00;98257.54;110217;1265;21977;-79
2023/11/25 01:04:03;;;;;;;8.00;5.40;;;;;;;2.03;100.00;98262.11;109987;1269;23690;-79
2023/11/25 01:06:32;;;;;;;6.90;5.50;;;;;;;2.05;100.00;98270.45;109420;1266;23612;-80
2023/11/25 01:09:01;;;;;;;5.00;4.40;;;;;;;2.06;100.00;98282.25;110134;1262;23623;-79
2023/11/25 01:11:29;;;;;;;5.70;4.10;;;;;;;2.06;100.00;98283.98;110370;1262;22183;-79
2023/11/25 01:13:58;;;;;;;5.30;3.30;;;;;;;2.03;100.00;98290.24;109948;1266;21959;-80
2023/11/25 01:16:28;;;;;;;7.10;3.80;;;;;;;1.87;100.00;98276.77;110115;1266;21973;-80
2023/11/25 01:19:00;;;;;;;5.90;2.90;;;;;;;1.95;100.00;98299.43;110014;1266;21981;-80
2023/11/25 01:21:29;;;;;;;6.80;3.00;;;;;;;1.92;100.00;98302.13;110137;1262;21963;-80
2023/11/25 01:23:59;;;;;;;4.30;2.80;;;;;;;1.90;100.00;98307.86;110463;1262;21969;-78
2023/11/25 01:26:32;;;;;;;3.80;2.40;;;;;;;1.85;100.00;98308.39;110559;1262;21996;-77
2023/11/25 01:29:01;;;;;;;5.80;2.80;;;;;;;1.86;100.00;98316.60;110459;1262;21969;-79
2023/11/25 01:31:34;;;;;;;3.30;2.70;;;;;;;1.82;100.00;98317.08;110554;1257;21963;-80
2023/11/25 01:34:02;;;;;;;4.50;3.20;;;;;;;1.76;100.00;98317.27;110932;1257;21982;-80
2023/11/25 01:36:31;;;;;;;3.50;3.00;;;;;;;1.74;100.00;98318.20;110741;1257;22250;-79
2023/11/25 01:39:06;;;;;;;4.20;3.50;;;;;;;1.70;100.00;98321.91;110706;1257;22961;-78
2023/11/25 01:41:34;;;;;;;6.10;4.00;;;;;;;1.66;100.00;98321.05;110821;1254;21997;-79
2023/11/25 01:44:03;;;;;;;5.00;3.80;;;;;;;1.63;100.00;98321.33;110839;1257;23583;-79
2023/11/25 01:46:42;;;;;;;4.90;3.90;;;;;;;1.59;100.00;98321.98;110758;1257;21982;-81
2023/11/25 01:49:23;;;;;;;4.90;3.80;;;;;;;1.56;100.00;98330.11;111033;1257;21987;-81
2023/11/25 01:51:52;;;;;;;5.20;4.10;;;;;;;1.54;100.00;98328.64;110744;1263;24424;-80
2023/11/25 01:54:23;;;;;;;7.40;4.40;;;;;;;1.53;100.00;98330.39;109575;1271;23922;-80
2023/11/25 01:56:58;;;;;;;5.00;4.10;;;;;;;1.50;100.00;98330.33;109166;1276;21983;-79
2023/11/25 01:59:27;;;;;;;5.50;4.00;;;;;;;1.43;100.00;98326.26;108818;1276;22059;-78
2023/11/25 02:01:58;;;;;;;4.70;4.30;;;;;;;1.32;100.00;98326.80;108841;1276;24358;-79
2023/11/25 02:04:27;;;;;;;5.40;4.00;;;;;;;1.24;100.00;98328.94;109230;1276;23017;-79
2023/11/25 02:07:00;;;;;;;5.70;4.50;;;;;;;1.22;100.00;98335.02;108822;1276;22048;-79
2023/11/25 02:09:33;;;;;;;5.80;4.10;;;;;;;1.14;100.00;98336.44;109109;1271;22000;-81
2023/11/25 02:12:03;;;;;;;5.80;4.00;;;;;;;1.09;100.00;98342.95;109482;1264;23028;-80
2023/11/25 02:14:32;;;;;;;4.90;3.80;;;;;;;1.03;100.00;98341.06;110469;1257;21973;-79
2023/11/25 02:17:01;;;;;;;5.30;4.40;;;;;;;1.00;100.00;98342.71;110854;1256;21973;-80
2023/11/25 02:19:32;;;;;;;6.10;4.30;;;;;;;0.97;100.00;98346.23;110928;1257;23700;-80
2023/11/25 02:22:01;;;;;;;6.60;4.10;;;;;;;0.93;100.00;98352.70;110728;1257;21971;-81
2023/11/25 02:24:30;;;;;;;4.80;4.30;;;;;;;0.87;100.00;98353.55;110946;1257;22995;-80
2023/11/25 02:27:01;;;;;;;6.30;4.70;;;;;;;0.83;100.00;98350.24;110824;1257;21961;-80
2023/11/25 02:29:33;;;;;;;6.10;4.10;;;;;;;0.81;100.00;98358.19;110895;1257;23021;-78
2023/11/25 02:32:09;;;;;;;4.30;3.90;;;;;;;0.79;100.00;98361.67;110901;1257;22052;-78
2023/11/25 02:34:38;;;;;;;4.80;4.20;;;;;;;0.75;100.00;98364.55;110798;1257;21958;-78
2023/11/25 02:37:06;;;;;;;6.10;3.80;;;;;;;0.73;100.00;98364.56;110660;1257;22708;-81
2023/11/25 02:39:38;;;;;;;4.90;4.50;;;;;;;0.73;100.00;98369.21;111022;1257;21952;-80
2023/11/25 02:42:06;;;;;;;7.80;5.60;;;;;;;0.70;100.00;98368.77;111011;1257;23679;-79
2023/11/25 02:44:38;;;;;;;6.10;5.00;;;;;;;0.67;100.00;98370.91;110866;1257;22009;-79
2023/11/25 02:47:07;;;;;;;;;;;;;;;0.67;100.00;98376.25;111054;1257;21941;-80
2023/11/25 02:49:39;;;;;;;7.00;5.00;;;;;;;0.59;100.00;98382.81;111104;1257;22976;-81
2023/11/25 02:52:07;;;;;;;5.80;5.20;;;;;;;0.56;100.00;98388.19;110798;1257;23040;-79
2023/11/25 02:54:39;;;;;;;5.30;4.50;;;;;;;0.57;100.00;98394.14;110451;1265;22013;-79
2023/11/25 02:57:08;;;;;;;6.50;5.50;;;;;;;0.58;100.00;98399.78;109749;1270;23793;-79
2023/11/25 02:59:37;;;;;;;5.80;5.10;;;;;;;0.61;100.00;98405.36;109006;1276;23842;-79
2023/11/25 03:02:09;;;;;;;5.30;4.50;;;;;;;0.65;100.00;98411.06;108896;1276;21987;-79
2023/11/25 03:04:45;;;;;;;6.30;5.00;;;;;;;0.67;100.00;98414.59;109057;1276;21980;-82
2023/11/25 03:07:15;;;;;;;5.20;4.60;;;;;;;0.70;100.00;98420.85;108645;1283;22021;-82
2023/11/25 03:09:43;;;;;;;5.80;4.70;;;;;;;0.71;100.00;98424.90;108260;1287;22026;-80
2023/11/25 03:12:12;;;;;;;6.20;4.10;;;;;;;0.71;100.00;98429.02;108143;1287;22028;-79
2023/11/25 03:14:44;;;;;;;7.10;5.60;;;;;;;0.72;100.00;98434.64;108453;1282;21999;-79
2023/11/25 03:17:13;;;;;;;;;;;;;;;0.72;100.00;98434.13;108659;1276;21968;-78
2023/11/25 03:19:42;;;;;;;5.30;4.80;;;;;;;0.66;100.00;98437.39;108831;1275;22436;-79
2023/11/25 03:22:13;;;;;;;5.20;4.70;;;;;;;0.67;100.00;98438.57;109031;1275;24982;-80
2023/11/25 03:24:43;;;;;;;5.90;5.30;;;;;;;0.67;100.00;98439.07;109267;1270;21995;-79
2023/11/25 03:27:13;;;;;;;6.10;5.50;;;;;;;0.67;100.00;98441.79;109913;1264;21981;-81
2023/11/25 03:29:42;;;;;;;6.30;5.70;;;;;;;0.70;100.00;98443.61;109778;1267;21943;-80
2023/11/25 03:32:12;;;;;;;8.70;5.90;;;;;;;0.72;100.00;98449.68;109928;1263;24313;-79
2023/11/25 03:34:42;;;;;;;7.30;6.20;;;;;;;0.73;100.00;98454.81;109933;1267;23783;-79
2023/11/25 03:37:10;;;;;;;8.00;6.50;;;;;;;0.73;100.00;98455.86;109870;1262;23587;-78
2023/11/25 03:39:40;;;;;;;10.80;6.80;;;;;;;0.72;100.00;98454.15;110436;1262;21924;-79
2023/11/25 03:42:08;;;;;;;9.50;7.50;;;;;;;0.72;100.00;98457.05;109795;1267;22038;-80
2023/11/25 03:44:43;;;;;;;10.60;7.40;;;;;;;0.74;100.00;98464.39;109799;1267;23631;-80
2023/11/25 03:47:14;;;;;;;11.20;8.00;;;;;;;0.75;100.00;98467.08;109269;1267;23032;-81
2023/11/25 03:49:45;;;;;;;13.90;9.70;;;;;;;0.77;100.00;98472.67;109321;1264;23786;-80
2023/11/25 03:52:17;;;;;;;14.10;10.80;;;;;;;0.79;100.00;98480.16;109573;1271;23071;-80
2023/11/25 03:54:48;;;;;;;9.50;8.30;;;;;;;0.81;100.00;98482.87;109379;1270;22017;-80
2023/11/25 03:57:17;;;;;;;12.70;8.60;;;;;;;0.83;100.00;98484.84;109892;1271;21982;-80
2023/11/25 03:59:50;;;;;;;13.00;8.90;;;;;;;0.85;100.00;98482.22;109597;1270;23059;-80
2023/11/25 04:02:19;;;;;;;10.50;8.30;;;;;;;0.88;100.00;98481.11;109624;1270;22285;-81
2023/11/25 04:04:50;;;;;;;11.70;7.40;;;;;;;0.87;100.00;98482.52;109623;1270;22004;-79
2023/11/25 04:07:22;;;;;;;8.80;6.80;;;;;;;0.84;100.00;98489.96;109589;1264;23637;-81
2023/11/25 04:09:50;;;;;;;14.90;7.50;;;;;;;0.79;100.00;98489.23;110413;1264;23044;-81
2023/11/25 04:12:23;;;;;;;10.10;7.30;;;;;;;0.77;100.00;98496.30;110902;1257;22004;-80
2023/11/25 04:14:56;;;;;;;12.00;7.10;;;;;;;0.76;100.00;98501.65;111091;1257;22436;-81
2023/11/25 04:17:30;;;;;;;8.80;7.90;;;;;;;0.73;100.00;98500.70;111005;1257;22147;-80
2023/11/25 04:20:17;;;;;;;6.80;6.10;;;;;;;0.71;100.00;98502.48;111065;1257;21963;-81
2023/11/25 04:22:50;;;;;;;7.70;6.60;;;;;;;0.70;100.00;98509.69;110657;1262;21968;-80
2023/11/25 04:25:23;;;;;;;8.80;6.70;;;;;;;0.69;100.00;98514.35;110319;1263;21980;-80
2023/11/25 04:27:51;;;;;;;9.20;6.50;;;;;;;0.69;100.00;98516.41;110658;1263;22045;-79
2023/11/25 04:30:28;;;;;;;10.20;7.90;;;;;;;0.69;100.00;98518.97;110501;1262;21969;-81
2023/11/25 04:33:01;;;;;;;8.50;6.60;;;;;;;0.69;100.00;98524.95;110321;1254;23028;-79
2023/11/25 04:35:33;;;;;;;9.20;7.50;;;;;;;0.68;100.00;98531.81;109869;1268;21977;-80
2023/11/25 04:38:02;;;;;;;8.80;7.50;;;;;;;0.68;100.00;98534.05;110114;1268;21955;-80
2023/11/25 04:40:36;;;;;;;8.90;6.80;;;;;;;0.69;100.00;98545.16;109907;1262;22161;-79
2023/11/25 04:43:10;;;;;;;10.00;6.80;;;;;;;0.69;100.00;98551.31;110444;1262;23061;-79
2023/11/25 04:45:44;;;;;;;16.30;11.70;;;;;;;0.70;100.00;98554.53;110541;1262;23120;-79
2023/11/25 04:48:12;;;;;;;8.50;7.20;;;;;;;0.72;100.00;98561.67;110335;1262;21987;-80
2023/11/25 04:50:48;;;;;;;8.80;6.30;;;;;;;0.73;100.00;98573.64;110647;1262;22257;-79
2023/11/25 04:53:16;;;;;;;11.00;8.10;;;;;;;0.77;100.00;98577.14;110872;1257;21977;-80
2023/11/25 04:55:45;;;;;;;18.60;12.00;;;;;;;0.79;100.00;98580.35;111028;1257;21972;-78
2023/11/25 04:58:14;;;;;;;11.50;9.10;;;;;;;0.81;100.00;98583.19;110928;1256;21970;-80
2023/11/25 05:00:51;;;;;;;;;;;;;;;0.84;100.00;98589.61;110790;1262;23586;-80
2023/11/25 05:03:19;;;;;;;6.90;6.20;;;;;;;0.79;100.00;98595.92;110524;1262;21968;-80
2023/11/25 05:05:51;;;;;;;10.70;6.70;;;;;;;0.81;100.00;98597.94;110697;1262;21974;-80
2023/11/25 05:08:24;;;;;;;10.60;7.20;;;;;;;0.84;100.00;98604.35;110632;1262;22066;-81
2023/11/25 05:10:56;;;;;;;10.60;7.60;;;;;;;0.88;100.00;98610.09;110523;1262;21969;-80
2023/11/25 05:13:26;;;;;;;7.90;7.10;;;;;;;0.91;100.00;98609.48;110512;1262;21974;-79
2023/11/25 05:16:03;;;;;;;8.60;6.90;;;;;;;0.94;100.00;98614.86;110559;1262;23742;-79
2023/11/25 05:18:32;;;;;;;8.70;7.20;;;;;;;0.97;100.00;98616.00;110608;1257;22003;-80
2023/11/25 05:21:06;;;;;;;9.70;8.00;;;;;;;0.98;100.00;98619.05;111148;1257;23615;-79
2023/11/25 05:23:38;;;;;;;9.20;7.10;;;;;;;0.98;100.00;98619.05;111097;1257;22363;-80
2023/11/25 05:26:11;;;;;;;9.00;7.90;;;;;;;0.98;100.00;98622.99;110624;1264;21974;-80
2023/11/25 05:28:50;;;;;;;9.20;8.20;;;;;;;0.96;100.00;98621.52;110381;1264;23108;-79
2023/11/25 05:31:22;;;;;;;10.70;8.30;;;;;;;0.95;100.00;98628.23;110282;1265;22070;-81
2023/11/25 05:33:57;;;;;;;8.60;7.30;;;;;;;0.95;100.00;98628.23;110401;1265;21981;-80
2023/11/25 05:36:32;;;;;;;9.20;7.50;;;;;;;0.95;100.00;98631.13;110251;1265;21972;-79
2023/11/25 05:39:17;;;;;;;8.90;8.00;;;;;;;0.93;100.00;98634.92;110533;1264;21966;-79
2023/11/25 05:41:55;;;;;;;9.20;8.20;;;;;;;0.92;100.00;98632.58;110468;1265;22747;-80
2023/11/25 05:44:35;;;;;;;9.00;8.10;;;;;;;0.85;100.00;98623.49;111328;1249;21977;-79
2023/11/25 05:47:15;;;;;;;13.10;8.90;;;;;;;0.93;100.00;98636.65;110716;1247;21960;-81
2023/11/25 05:49:44;;;;;;;13.20;9.60;;;;;;;0.95;100.00;98642.61;110671;1259;21968;-80
2023/11/25 05:52:16;;;;;;;11.60;9.90;;;;;;;0.97;100.00;98641.88;110836;1259;23710;-81
2023/11/25 05:54:45;;;;;;;10.70;8.70;;;;;;;0.97;100.00;98646.14;110798;1259;21983;-80
2023/11/25 05:57:18;;;;;;;12.10;8.70;;;;;;;0.95;100.00;98651.50;110707;1259;23033;-81
2023/11/25 05:59:47;;;;;;;8.70;7.90;;;;;;;0.95;100.00;98655.27;110659;1258;22639;-82
2023/11/25 06:02:16;;;;;;;9.90;6.40;;;;;;;0.91;100.00;98651.42;110765;1258;21992;-82
2023/11/25 06:04:45;;;;;;;7.40;6.70;;;;;;;0.96;100.00;98656.63;110330;1266;22408;-83
2023/11/25 06:07:14;;;;;;;11.10;7.10;;;;;;;0.96;100.00;98660.73;110406;1266;22832;-82
2023/11/25 06:09:49;;;;;;;10.20;6.70;;;;;;;0.99;100.00;98661.52;110364;1266;23134;-79
2023/11/25 06:12:21;;;;;;;11.30;9.40;;;;;;;1.01;100.00;98661.48;110221;1266;22079;-81
2023/11/25 06:14:51;;;;;;;8.20;6.60;;;;;;;1.01;100.00;98665.23;110382;1266;23714;-82
2023/11/25 06:17:20;;;;;;;7.90;6.20;;;;;;;1.02;100.00;98668.13;110130;1266;21994;-79
2023/11/25 06:20:20;;;;;;;8.40;5.80;;;;;;;1.02;100.00;98670.19;110299;1266;21994;-82
2023/11/25 06:23:09;;;;;;;5.20;4.70;;;;;;;1.02;100.00;98673.41;110514;1259;21963;-81
2023/11/25 06:25:44;;;;;;;8.30;5.10;;;;;;;1.03;100.00;98681.45;110713;1259;21972;-79
2023/11/25 06:28:14;;;;;;;6.80;5.10;;;;;;;1.03;100.00;98686.95;110863;1256;23039;-81
2023/11/25 06:30:57;;;;;;;7.60;6.00;;;;;;;1.03;100.00;98692.77;111005;1247;22430;-82
2023/11/25 06:33:29;;;;;;;5.70;5.10;;;;;;;1.02;100.00;98695.52;110889;1258;23097;-80
2023/11/25 06:35:58;;;;;;;11.20;5.40;;;;;;;1.05;100.00;98707.63;110799;1259;22335;-80
2023/11/25 06:38:30;;;;;;;8.80;5.70;;;;;;;1.07;100.00;98711.84;110905;1258;22703;-83
2023/11/25 06:41:01;;;;;;;11.20;8.00;;;;;;;1.11;100.00;98718.41;110648;1258;21978;-81
2023/11/25 06:43:29;;;;;;;11.50;8.30;;;;;;;1.15;100.00;98725.88;110852;1258;21964;-83
2023/11/25 06:46:08;;;;;;;9.80;6.30;;;;;;;1.17;100.00;98723.24;110295;1266;22041;-80
2023/11/25 06:48:55;;;;;;;9.30;5.70;;;;;;;1.18;100.00;98733.00;110386;1266;23612;-80
2023/11/25 06:51:30;;;;;;;8.00;5.10;;;;;;;1.21;100.00;98745.94;109950;1270;21982;-82
2023/11/25 06:54:00;;;;;;;11.40;6.10;;;;;;;1.24;100.00;98754.44;109821;1270;22325;-79
2023/11/25 06:56:31;;;;;;;9.60;7.00;;;;;;;1.25;100.00;98756.13;109955;1270;22024;-83
2023/11/25 06:59:03;;;;;;;6.50;5.40;;;;;;;1.25;100.00;98755.09;109759;1270;22278;-80
2023/11/25 07:01:35;;;;;;;10.30;6.00;;;;;;;1.31;100.00;98761.96;109590;1270;21980;-81
2023/11/25 07:04:07;;;;;;;8.80;5.00;;;;;;;1.37;100.00;98764.89;109431;1270;23593;-79
2023/11/25 07:06:40;;;;;;;7.30;5.40;;;;;;;1.39;100.00;98764.68;109712;1269;22003;-79
2023/11/25 07:09:09;;;;;;;6.90;5.30;;;;;;;1.40;100.00;98768.06;109844;1265;22091;-78
2023/11/25 07:11:37;;;;;;;9.60;5.00;;;;;;;1.43;100.00;98764.73;110171;1265;21973;-80
2023/11/25 07:14:22;;;;;;;8.50;6.40;;;;;;;1.45;100.00;98763.65;109500;1270;21986;-84
2023/11/25 07:16:56;;;;;;;7.00;5.70;;;;;;;1.45;100.00;98764.34;109455;1269;21997;-80
2023/11/25 07:19:28;;;;;;;7.10;5.50;;;;;;;1.45;100.00;98769.80;109417;1269;23762;-79
2023/11/25 07:21:57;;;;;;;7.30;6.50;;;;;;;1.45;100.00;98779.07;109873;1264;21967;-80
2023/11/25 07:24:39;;;;;;;9.60;6.20;;;;;;;1.49;100.00;98780.67;110156;1265;21979;-81
2023/11/25 07:27:10;;;;;;;12.30;6.90;;;;;;;1.54;100.00;98782.27;110133;1269;21974;-81
2023/11/25 07:29:49;;;;;;;9.90;7.10;;;;;;;1.58;100.00;98786.46;109781;1269;21979;-82
2023/11/25 07:32:32;;;;;;;9.20;7.00;;;;;;;1.63;100.00;98788.92;109183;1275;22016;-82
2023/11/25 07:35:06;;;;;;;13.50;6.90;;;;;;;1.68;100.00;98791.17;109319;1275;23621;-83
2023/11/25 07:37:48;;;;;;;9.80;6.50;;;;;;;1.72;100.00;98791.92;108879;1280;23012;-81
2023/11/25 07:40:27;;;;;;;8.20;5.90;;;;;;;1.75;100.00;98788.76;109264;1275;22910;-79
2023/11/25 07:42:59;;;;;;;9.20;6.40;;;;;;;1.75;100.00;98788.75;109007;1276;23638;-81
2023/11/25 07:45:29;;;;;;;9.00;6.60;;;;;;;1.77;100.00;98789.23;109105;1271;22461;-80
2023/11/25 07:47:58;;;;;;;7.50;6.10;;;;;;;1.76;100.00;98784.98;109314;1271;23731;-80
2023/11/25 07:50:26;;;;;;;9.80;5.90;;;;;;;1.82;100.00;98789.08;109613;1266;21983;-81
2023/11/25 07:52:58;;;;;;;8.30;5.60;;;;;;;1.86;100.00;98786.91;110241;1265;21991;-79
2023/11/25 07:55:38;;;;;;;11.10;6.60;;;;;;;1.89;100.00;98791.46;110355;1259;22385;-80
2023/11/25 08:00:59;;;;;;;8.00;6.20;;;;;;;1.91;100.00;98793.27;110231;1265;22014;-81
2023/11/25 08:04:01;;;;;;;7.60;6.10;;;;;;;1.92;100.00;98793.27;110369;1252;23062;-83
2023/11/25 08:06:49;;;;;;;9.70;6.70;;;;;;;1.90;100.00;98797.44;109685;1271;24324;-86
2023/11/25 08:09:46;;;;;;;10.90;7.40;;;;;;;1.92;100.00;98798.91;109648;1271;23810;-84
2023/11/25 08:12:24;;;;;;;9.80;7.30;;;;;;;1.82;100.00;98779.15;109704;1271;21982;-83
2023/11/25 08:18:26;;;;;;;10.50;6.60;;;;;;;2.10;100.00;98808.37;109442;1272;24366;-83
2023/11/25 08:21:07;;;;;;;11.20;6.40;;;;;;;2.20;100.00;98807.08;108977;1277;21993;-83
2023/11/25 08:23:56;;;;;;;10.30;6.10;;;;;;;2.27;100.00;98806.02;108917;1276;21978;-83
2023/11/25 08:26:56;;;;;;;9.10;5.50;;;;;;;2.33;100.00;98808.60;109209;1276;23274;-82
2023/11/25 08:29:46;;;;;;;10.20;6.00;;;;;;;2.41;100.00;98810.77;109189;1276;22027;-84
2023/11/25 08:32:30;;;;;;;7.70;6.10;;;;;;;2.47;100.00;98814.20;108979;1276;22026;-83
2023/11/25 08:35:25;;;;;;;6.20;4.70;;;;;;;2.53;100.00;98818.84;108969;1280;23071;-84
2023/11/25 08:38:56;;;;;;;6.50;5.20;;;;;;;2.55;100.00;98828.56;108706;1281;22794;-81
2023/11/25 08:42:09;;;;;;;7.60;5.30;;;;;;;2.55;100.00;98838.36;108820;1281;22014;-83
2023/11/25 08:45:02;;;;;;;8.10;5.60;;;;;;;2.54;100.00;98843.20;108791;1281;23644;-83
2023/11/25 08:48:26;;;;;;;6.70;5.40;;;;;;;2.52;100.00;98844.09;104795;1281;5446036;-83
2023/11/25 08:51:35;;;;;;;11.50;6.30;;;;;;;2.51;100.00;98849.11;109737;1269;24373;-81
2023/11/25 08:54:48;;;;;;;10.80;5.70;;;;;;;2.49;100.00;98854.33;110026;1269;23789;-81
2023/11/25 08:57:36;;;;;;;6.10;5.40;;;;;;;2.49;100.00;98858.61;110080;1266;23178;-82
2023/11/25 09:00:29;;;;;;;7.90;5.50;;;;;;;2.48;100.00;98863.98;110100;1262;22001;-84
2023/11/25 09:02:58;;;;;;;7.70;5.40;;;;;;;2.50;100.00;98862.36;110048;1266;22167;-86
2023/11/25 09:05:40;;;;;;;8.80;5.90;;;;;;;2.53;100.00;98866.21;109727;1266;23688;-84
2023/11/25 09:08:14;;;;;;;9.00;5.80;;;;;;;2.55;100.00;98872.34;110083;1266;21999;-83
2023/11/25 09:10:58;;;;;;;11.10;8.00;;;;;;;2.59;100.00;98869.32;110343;1266;21992;-83
2023/11/25 09:13:32;;;;;;;9.30;6.50;;;;;;;2.63;100.00;98866.63;109589;1264;21983;-82
2023/11/25 09:16:03;;;;;;;16.10;7.00;;;;;;;2.66;100.00;98869.13;110026;1265;24472;-82
2023/11/25 09:20:42;;;;;;;;;;;;;;;;;;;;;
2023/11/25 09:24:53;;;;;;;10.60;6.80;;;;;;;2.63;100.00;98859.08;109619;1269;23048;-83
2023/11/25 09:29:12;;;;;;;;;;;;;;;;;;;;;
2023/11/25 09:34:10;;;;;;;11.50;9.10;;;;;;;2.68;100.00;98871.11;108542;1287;22063;-82
2023/11/25 09:38:17;;;;;;;6.90;6.00;;;;;;;2.69;100.00;98866.63;107380;1296;22783;-84
2023/11/25 09:45:10;;;;;;;11.00;7.70;;;;;;;2.83;100.00;98866.89;106282;1311;22082;-84
2023/11/25 10:00:00;;;;;;;;;;;;;;;;;;;;;
2023/11/25 10:04:34;;;;;;;;;;;;;;;;;;;;;
2023/11/25 10:09:34;;;;;;;;;;;;;;;;;;;;;
2023/11/25 10:13:03;;;;;;;;;;;;;;;;;;;;;
2023/11/25 10:17:13;;;;;;;8.30;5.10;;;;;;;3.73;100.00;98891.42;108256;1288;22021;-84
2023/11/25 10:21:10;;;;;;;7.20;5.30;;;;;;;3.55;100.00;98893.55;107910;1296;22935;-81
2023/11/25 10:28:32;;;;;;;;;;;;;;;;;;;;;
2023/11/25 10:32:11;;;;;;;12.40;6.00;;;;;;;3.37;100.00;98898.09;107945;1293;544887;-82
2023/11/25 10:35:40;;;;;;;11.00;5.90;;;;;;;3.29;100.00;98898.85;110080;1269;22090;-82
2023/11/25 10:39:04;;;;;;;12.10;6.30;;;;;;;3.24;100.00;98900.88;110028;1269;22383;-83
2023/11/25 10:42:02;;;;;;;10.00;6.40;;;;;;;3.23;100.00;98896.44;110075;1269;21976;-83
2023/11/25 10:45:24;;;;;;;9.70;5.90;;;;;;;3.25;100.00;98896.04;105568;1255;7335072;-85
2023/11/25 10:48:08;;;;;;;6.40;5.20;;;;;;;3.25;100.00;98897.41;111332;1255;21974;-83
2023/11/25 10:50:58;;;;;;;8.90;6.00;;;;;;;3.28;100.00;98900.59;111624;1255;23690;-80
2023/11/25 10:54:31;;;;;;;10.20;6.80;;;;;;;3.28;100.00;98901.78;111518;1255;22953;-83
2023/11/25 10:57:35;;;;;;;15.70;8.20;;;;;;;3.29;100.00;98902.11;111270;1258;21995;-83
2023/11/25 11:00:41;;;;;;;8.40;7.30;;;;;;;3.30;100.00;98903.43;110570;1265;21980;-82
2023/11/25 11:04:07;;;;;;;10.00;7.60;;;;;;;3.35;100.00;98903.81;110584;1264;21972;-82
2023/11/25 11:07:48;;;;;;;21.10;15.20;;;;;;;3.33;100.00;98901.63;109826;1272;23739;-80
2023/11/25 11:15:08;;;;;;;9.10;7.50;;;;;;;3.35;100.00;98907.42;110107;1275;21997;-82
2023/11/25 11:18:24;;;;;;;7.30;5.70;;;;;;;3.40;100.00;98912.78;108918;1276;22206;-84
2023/11/25 11:21:56;;;;;;;9.30;6.40;;;;;;;3.42;100.00;98915.13;109583;1276;22032;-82
2023/11/25 11:25:28;;;;;;;11.10;5.80;;;;;;;3.43;100.00;98923.86;108910;1280;24532;-82
2023/11/25 11:28:27;;;;;;;8.50;6.00;;;;;;;3.39;100.00;98920.88;108563;1285;22027;-81
2023/11/25 11:32:06;;;;;;;13.10;8.00;;;;;;;3.35;100.00;98928.90;108125;1290;22088;-80
2023/11/25 11:35:46;;;;;;;11.70;5.20;;;;;;;3.28;100.00;98926.90;108241;1287;22008;-81
2023/11/25 11:39:39;;;;;;;12.50;6.60;;;;;;;3.20;100.00;98927.84;108860;1287;22013;-84
2023/11/25 11:42:50;;;;;;;6.90;4.90;;;;;;;3.02;100.00;98907.74;108775;1287;23631;-81
2023/11/25 11:45:56;;;;;;;6.60;5.00;;;;;;;3.11;100.00;98921.91;109166;1271;22340;-81
2023/11/25 11:49:18;;;;;;;32.10;23.70;;;;;;;3.13;100.00;98915.15;109525;1273;21980;-80
2023/11/25 11:57:31;;;;;;;11.00;5.20;;;;;;;3.16;100.00;98915.91;110190;1267;21978;-80
2023/11/25 12:01:28;;;;;;;14.00;7.70;;;;;;;3.16;100.00;98915.75;109585;1273;22997;-82
2023/11/25 12:05:13;;;;;;;11.50;6.20;;;;;;;3.16;100.00;98911.30;110231;1268;23048;-81
2023/11/25 12:12:28;;;;;;;8.20;6.00;;;;;;;3.13;100.00;98909.66;109691;1272;23805;-81
2023/11/25 12:15:23;;;;;;;10.60;8.30;;;;;;;3.10;100.00;98907.51;109395;1272;22133;-81
2023/11/25 12:18:52;;;;;;;12.60;8.60;;;;;;;3.07;100.00;98905.69;109442;1272;22004;-81
2023/11/25 12:22:04;;;;;;;12.10;9.00;;;;;;;2.93;100.00;98910.23;109239;1282;24419;-81
2023/11/25 12:25:03;;;;;;;17.30;9.90;;;;;;;2.88;100.00;98914.68;108689;1283;22010;-81
2023/11/25 12:28:54;;;;;;;11.00;8.70;;;;;;;2.84;100.00;98913.60;108677;1281;22310;-82
2023/11/25 12:31:58;;;;;;;10.90;9.50;;;;;;;2.74;100.00;98917.83;108649;1283;22318;-81
2023/11/25 12:36:00;;;;;;;16.80;11.60;;;;;;;2.67;100.00;98919.42;108514;1289;22026;-81
2023/11/25 12:43:33;;;;;;;16.30;11.20;;;;;;;2.55;100.00;98922.17;108061;1292;22470;-82
2023/11/25 12:48:02;;;;;;;14.70;11.20;;;;;;;2.63;100.00;98922.10;108034;1292;546649;-81
2023/11/25 12:51:16;;;;;;;22.60;12.30;;;;;;;2.50;100.00;98925.90;109685;1271;22006;-81
2023/11/25 12:54:14;;;;;;;14.50;12.20;;;;;;;2.43;100.00;98922.32;109265;1275;23039;-82
2023/11/25 12:57:29;;;;;;;14.30;12.30;;;;;;;2.40;100.00;98926.52;108864;1280;23710;-80
2023/11/25 13:00:27;;;;;;;16.40;12.90;;;;;;;2.40;100.00;98927.55;106881;1271;3604362;-79
2023/11/25 13:03:41;;;;;;;13.80;11.40;;;;;;;2.41;100.00;98923.07;109473;1271;21977;-82
2023/11/25 13:07:31;;;;;;;15.10;12.20;;;;;;;2.40;100.00;98928.92;109716;1271;22051;-81
2023/11/25 13:10:39;;;;;;;14.90;12.10;;;;;;;2.38;100.00;98930.17;109284;1276;22509;-79
2023/11/25 13:13:30;;;;;;;21.60;15.80;;;;;;;2.36;100.00;98925.41;109414;1273;21990;-81
2023/11/25 13:16:15;;;;;;;31.00;19.10;;;;;;;2.30;100.00;98915.29;110177;1269;22368;-82
2023/11/25 13:18:58;;;;;;;26.40;16.70;;;;;;;2.37;100.00;98921.46;109786;1269;22779;-83
2023/11/25 13:22:22;;;;;;;;;;;;;;;;;;;;;
2023/11/25 13:25:26;;;;;;;17.30;14.00;;;;;;;2.33;100.00;98917.08;110659;1264;22087;-79
2023/11/25 13:28:15;;;;;;;194.80;34.90;;;;;;;2.18;100.00;98894.34;109944;1269;22096;-79
2023/11/25 13:31:07;;;;;;;19.00;14.00;;;;;;;2.31;100.00;98913.89;110072;1269;23749;-79
2023/11/25 13:34:05;;;;;;;21.10;14.60;;;;;;;2.27;100.00;98915.38;110397;1266;21982;-80
2023/11/25 13:36:52;;;;;;;22.30;15.00;;;;;;;2.23;100.00;98915.30;110181;1262;22023;-80
2023/11/25 13:39:49;;;;;;;25.40;13.30;;;;;;;2.20;100.00;98913.85;110320;1266;21992;-78
2023/11/25 13:42:58;;;;;;;18.50;13.90;;;;;;;2.16;100.00;98920.14;110147;1266;22731;-78
2023/11/25 13:45:48;;;;;;;18.60;14.10;;;;;;;2.14;100.00;98921.02;110099;1262;21964;-77